sensor_id;sensor_type;location;lat;lon;timestamp;temperature;humidity
5881;DHT22;2966;52.598;10.928;2023-04-03T00:01:18;0.00;99.90
5881;DHT22;2966;52.598;10.928;2023-04-03T00:03:45;-0.10;99.90
5881;DHT22;2966;52.598;10.928;2023-04-03T00:06:12;-0.10;99.90
5881;DHT22;2966;52.598;10.928;2023-04-03T00:08:39;-0.10;99.90
5881;DHT22;2966;52.598;10.928;2023-04-03T00:11:07;-0.10;99.90
5881;DHT22;2966;52.598;10.928;2023-04-03T00:13:34;-0.20;99.90
5881;DHT22;2966;52.598;10.928;2023-04-03T00:16:01;-0.20;99.90
5881;DHT22;2966;52.598;10.928;2023-04-03T00:18:30;-0.20;99.90
5881;DHT22;2966;52.598;10.928;2023-04-03T00:20:57;-0.20;99.90
5881;DHT22;2966;52.598;10.928;2023-04-03T00:23:24;-0.20;99.90
5881;DHT22;2966;52.598;10.928;2023-04-03T00:25:51;-0.20;99.90
5881;DHT22;2966;52.598;10.928;2023-04-03T00:28:18;-0.20;99.90
5881;DHT22;2966;52.598;10.928;2023-04-03T00:30:44;-0.20;99.90
5881;DHT22;2966;52.598;10.928;2023-04-03T00:33:12;-0.20;99.90
5881;DHT22;2966;52.598;10.928;2023-04-03T00:35:41;-0.20;99.90
5881;DHT22;2966;52.598;10.928;2023-04-03T00:38:08;-0.30;99.90
5881;DHT22;2966;52.598;10.928;2023-04-03T00:40:36;-0.30;99.90
5881;DHT22;2966;52.598;10.928;2023-04-03T00:43:10;-0.30;99.90
5881;DHT22;2966;52.598;10.928;2023-04-03T00:45:39;-0.30;99.90
5881;DHT22;2966;52.598;10.928;2023-04-03T00:48:08;-0.30;99.90
5881;DHT22;2966;52.598;10.928;2023-04-03T00:50:38;-0.30;99.90
5881;DHT22;2966;52.598;10.928;2023-04-03T00:53:09;-0.30;99.90
5881;DHT22;2966;52.598;10.928;2023-04-03T00:55:38;-0.30;99.90
5881;DHT22;2966;52.598;10.928;2023-04-03T00:58:06;-0.30;99.90
5881;DHT22;2966;52.598;10.928;2023-04-03T01:00:34;-0.30;99.90
5881;DHT22;2966;52.598;10.928;2023-04-03T01:03:02;-0.30;99.90
5881;DHT22;2966;52.598;10.928;2023-04-03T01:05:28;-0.30;99.90
5881;DHT22;2966;52.598;10.928;2023-04-03T01:07:56;-0.40;99.90
5881;DHT22;2966;52.598;10.928;2023-04-03T01:10:25;-0.40;99.90
5881;DHT22;2966;52.598;10.928;2023-04-03T01:12:52;-0.40;99.90
5881;DHT22;2966;52.598;10.928;2023-04-03T01:15:21;-0.40;99.90
5881;DHT22;2966;52.598;10.928;2023-04-03T01:17:50;-0.40;99.90
5881;DHT22;2966;52.598;10.928;2023-04-03T01:23:36;-0.40;99.90
5881;DHT22;2966;52.598;10.928;2023-04-03T01:26:06;-0.50;99.90
5881;DHT22;2966;52.598;10.928;2023-04-03T01:28:36;-0.50;99.90
5881;DHT22;2966;52.598;10.928;2023-04-03T01:31:08;-0.50;99.90
5881;DHT22;2966;52.598;10.928;2023-04-03T01:33:38;-0.50;99.90
5881;DHT22;2966;52.598;10.928;2023-04-03T01:36:06;-0.50;99.90
5881;DHT22;2966;52.598;10.928;2023-04-03T01:38:33;-0.60;99.90
5881;DHT22;2966;52.598;10.928;2023-04-03T01:41:01;-0.60;99.90
5881;DHT22;2966;52.598;10.928;2023-04-03T01:43:27;-0.60;99.90
5881;DHT22;2966;52.598;10.928;2023-04-03T01:45:54;-0.60;99.90
5881;DHT22;2966;52.598;10.928;2023-04-03T01:48:21;-0.60;99.90
5881;DHT22;2966;52.598;10.928;2023-04-03T01:50:49;-0.60;99.90
5881;DHT22;2966;52.598;10.928;2023-04-03T01:53:16;-0.60;99.90
5881;DHT22;2966;52.598;10.928;2023-04-03T01:55:42;-0.70;99.90
5881;DHT22;2966;52.598;10.928;2023-04-03T01:58:09;-0.60;99.90
5881;DHT22;2966;52.598;10.928;2023-04-03T02:00:36;-0.70;99.90
5881;DHT22;2966;52.598;10.928;2023-04-03T02:03:03;-0.70;99.90
5881;DHT22;2966;52.598;10.928;2023-04-03T02:05:29;-0.70;99.90
5881;DHT22;2966;52.598;10.928;2023-04-03T02:07:57;-0.70;99.90
5881;DHT22;2966;52.598;10.928;2023-04-03T02:10:24;-0.70;99.90
5881;DHT22;2966;52.598;10.928;2023-04-03T02:12:51;-0.70;99.90
5881;DHT22;2966;52.598;10.928;2023-04-03T02:15:18;-0.80;99.90
5881;DHT22;2966;52.598;10.928;2023-04-03T02:17:44;-0.80;99.90
5881;DHT22;2966;52.598;10.928;2023-04-03T02:20:11;-0.80;99.90
5881;DHT22;2966;52.598;10.928;2023-04-03T02:22:38;-0.80;99.90
5881;DHT22;2966;52.598;10.928;2023-04-03T02:25:07;-0.70;99.90
5881;DHT22;2966;52.598;10.928;2023-04-03T02:27:33;-0.70;99.90
5881;DHT22;2966;52.598;10.928;2023-04-03T02:30:00;-0.80;99.90
5881;DHT22;2966;52.598;10.928;2023-04-03T02:32:27;-0.80;99.90
5881;DHT22;2966;52.598;10.928;2023-04-03T02:34:54;-0.80;99.90
5881;DHT22;2966;52.598;10.928;2023-04-03T02:37:21;-0.80;99.90
5881;DHT22;2966;52.598;10.928;2023-04-03T02:39:47;-0.90;99.90
5881;DHT22;2966;52.598;10.928;2023-04-03T02:42:15;-0.90;99.90
5881;DHT22;2966;52.598;10.928;2023-04-03T02:44:42;-0.90;99.90
5881;DHT22;2966;52.598;10.928;2023-04-03T02:47:09;-0.90;99.90
5881;DHT22;2966;52.598;10.928;2023-04-03T02:49:36;-0.90;99.90
5881;DHT22;2966;52.598;10.928;2023-04-03T02:52:03;-1.00;99.90
5881;DHT22;2966;52.598;10.928;2023-04-03T02:54:30;-1.00;99.90
5881;DHT22;2966;52.598;10.928;2023-04-03T02:56:57;-1.00;99.90
5881;DHT22;2966;52.598;10.928;2023-04-03T02:59:25;-1.00;99.90
5881;DHT22;2966;52.598;10.928;2023-04-03T03:01:52;-1.00;99.90
5881;DHT22;2966;52.598;10.928;2023-04-03T03:04:19;-1.00;99.90
5881;DHT22;2966;52.598;10.928;2023-04-03T03:06:45;-1.00;99.90
5881;DHT22;2966;52.598;10.928;2023-04-03T03:09:13;-1.10;99.90
5881;DHT22;2966;52.598;10.928;2023-04-03T03:11:40;-1.10;99.90
5881;DHT22;2966;52.598;10.928;2023-04-03T03:14:06;-1.10;99.90
5881;DHT22;2966;52.598;10.928;2023-04-03T03:16:34;-1.10;99.90
5881;DHT22;2966;52.598;10.928;2023-04-03T03:19:01;-1.10;99.90
5881;DHT22;2966;52.598;10.928;2023-04-03T03:21:28;-1.20;99.90
5881;DHT22;2966;52.598;10.928;2023-04-03T03:23:55;-1.20;99.90
5881;DHT22;2966;52.598;10.928;2023-04-03T03:26:21;-1.20;99.90
5881;DHT22;2966;52.598;10.928;2023-04-03T03:28:49;-1.10;99.90
5881;DHT22;2966;52.598;10.928;2023-04-03T03:31:15;-1.20;99.90
5881;DHT22;2966;52.598;10.928;2023-04-03T03:33:43;-1.20;99.90
5881;DHT22;2966;52.598;10.928;2023-04-03T03:36:10;-1.30;99.90
5881;DHT22;2966;52.598;10.928;2023-04-03T03:38:37;-1.30;99.90
5881;DHT22;2966;52.598;10.928;2023-04-03T03:41:04;-1.30;99.90
5881;DHT22;2966;52.598;10.928;2023-04-03T03:43:38;-1.30;99.90
5881;DHT22;2966;52.598;10.928;2023-04-03T03:46:05;-1.30;99.90
5881;DHT22;2966;52.598;10.928;2023-04-03T03:48:32;-1.40;99.90
5881;DHT22;2966;52.598;10.928;2023-04-03T03:50:58;-1.30;99.90
5881;DHT22;2966;52.598;10.928;2023-04-03T03:53:25;-1.30;99.90
5881;DHT22;2966;52.598;10.928;2023-04-03T03:55:52;-1.30;99.90
5881;DHT22;2966;52.598;10.928;2023-04-03T03:58:18;-1.30;99.90
5881;DHT22;2966;52.598;10.928;2023-04-03T04:00:46;-1.30;99.90
5881;DHT22;2966;52.598;10.928;2023-04-03T04:03:13;-1.30;99.90
5881;DHT22;2966;52.598;10.928;2023-04-03T04:05:40;-1.30;99.90
5881;DHT22;2966;52.598;10.928;2023-04-03T04:08:06;-1.30;99.90
5881;DHT22;2966;52.598;10.928;2023-04-03T04:10:34;-1.30;99.90
5881;DHT22;2966;52.598;10.928;2023-04-03T04:13:01;-1.30;99.90
5881;DHT22;2966;52.598;10.928;2023-04-03T04:15:28;-1.30;99.90
5881;DHT22;2966;52.598;10.928;2023-04-03T04:17:56;-1.30;99.90
5881;DHT22;2966;52.598;10.928;2023-04-03T04:20:23;-1.30;99.90
5881;DHT22;2966;52.598;10.928;2023-04-03T04:22:50;-1.30;99.90
5881;DHT22;2966;52.598;10.928;2023-04-03T04:25:16;-1.30;99.90
5881;DHT22;2966;52.598;10.928;2023-04-03T04:27:43;-1.30;99.90
5881;DHT22;2966;52.598;10.928;2023-04-03T04:30:10;-1.30;99.90
5881;DHT22;2966;52.598;10.928;2023-04-03T04:32:37;-1.30;99.90
5881;DHT22;2966;52.598;10.928;2023-04-03T04:35:06;-1.30;99.90
5881;DHT22;2966;52.598;10.928;2023-04-03T04:37:33;-1.30;99.90
5881;DHT22;2966;52.598;10.928;2023-04-03T04:40:00;-1.30;99.90
5881;DHT22;2966;52.598;10.928;2023-04-03T04:42:27;-1.30;99.90
5881;DHT22;2966;52.598;10.928;2023-04-03T04:44:53;-1.20;99.90
5881;DHT22;2966;52.598;10.928;2023-04-03T04:47:20;-1.20;99.90
5881;DHT22;2966;52.598;10.928;2023-04-03T04:49:47;-1.20;99.90
5881;DHT22;2966;52.598;10.928;2023-04-03T04:52:15;-1.30;99.90
5881;DHT22;2966;52.598;10.928;2023-04-03T04:54:42;-1.30;99.90
5881;DHT22;2966;52.598;10.928;2023-04-03T04:57:09;-1.30;99.90
5881;DHT22;2966;52.598;10.928;2023-04-03T04:59:36;-1.30;99.90
5881;DHT22;2966;52.598;10.928;2023-04-03T05:02:02;-1.40;99.90
5881;DHT22;2966;52.598;10.928;2023-04-03T05:04:29;-1.30;99.90
5881;DHT22;2966;52.598;10.928;2023-04-03T05:06:56;-1.30;99.90
5881;DHT22;2966;52.598;10.928;2023-04-03T05:09:24;-1.30;99.90
5881;DHT22;2966;52.598;10.928;2023-04-03T05:11:52;-1.30;99.90
5881;DHT22;2966;52.598;10.928;2023-04-03T05:14:19;-1.30;99.90
5881;DHT22;2966;52.598;10.928;2023-04-03T05:16:45;-1.20;99.90
5881;DHT22;2966;52.598;10.928;2023-04-03T05:19:13;-1.30;99.90
5881;DHT22;2966;52.598;10.928;2023-04-03T05:21:39;-1.20;99.90
5881;DHT22;2966;52.598;10.928;2023-04-03T05:24:06;-1.20;99.90
5881;DHT22;2966;52.598;10.928;2023-04-03T05:26:36;-1.20;99.90
5881;DHT22;2966;52.598;10.928;2023-04-03T05:29:02;-1.10;99.90
5881;DHT22;2966;52.598;10.928;2023-04-03T05:31:29;-1.10;99.90
5881;DHT22;2966;52.598;10.928;2023-04-03T05:33:56;-0.90;99.90
5881;DHT22;2966;52.598;10.928;2023-04-03T05:36:23;-0.90;99.90
5881;DHT22;2966;52.598;10.928;2023-04-03T05:38:50;-0.90;99.90
5881;DHT22;2966;52.598;10.928;2023-04-03T05:41:18;-0.80;99.90
5881;DHT22;2966;52.598;10.928;2023-04-03T05:43:47;-0.70;99.90
5881;DHT22;2966;52.598;10.928;2023-04-03T05:46:15;-0.70;99.90
5881;DHT22;2966;52.598;10.928;2023-04-03T05:48:42;-0.60;99.90
5881;DHT22;2966;52.598;10.928;2023-04-03T05:51:14;-0.60;99.90
5881;DHT22;2966;52.598;10.928;2023-04-03T05:53:43;-0.50;99.90
5881;DHT22;2966;52.598;10.928;2023-04-03T05:56:12;-0.40;99.90
5881;DHT22;2966;52.598;10.928;2023-04-03T05:58:38;-0.30;99.90
5881;DHT22;2966;52.598;10.928;2023-04-03T06:01:06;-0.30;99.90
5881;DHT22;2966;52.598;10.928;2023-04-03T06:03:33;-0.20;99.90
5881;DHT22;2966;52.598;10.928;2023-04-03T06:06:03;-0.10;99.90
5881;DHT22;2966;52.598;10.928;2023-04-03T06:08:29;-0.10;99.90
5881;DHT22;2966;52.598;10.928;2023-04-03T06:10:56;0.00;99.90
5881;DHT22;2966;52.598;10.928;2023-04-03T06:13:23;0.10;99.90
5881;DHT22;2966;52.598;10.928;2023-04-03T06:15:50;0.10;99.90
5881;DHT22;2966;52.598;10.928;2023-04-03T06:18:18;0.20;99.90
5881;DHT22;2966;52.598;10.928;2023-04-03T06:20:45;0.30;99.90
5881;DHT22;2966;52.598;10.928;2023-04-03T06:23:12;0.40;99.90
5881;DHT22;2966;52.598;10.928;2023-04-03T06:25:38;0.40;99.90
5881;DHT22;2966;52.598;10.928;2023-04-03T06:28:06;0.50;99.90
5881;DHT22;2966;52.598;10.928;2023-04-03T06:30:34;0.60;99.90
5881;DHT22;2966;52.598;10.928;2023-04-03T06:33:02;0.50;99.90
5881;DHT22;2966;52.598;10.928;2023-04-03T06:35:30;0.60;99.90
5881;DHT22;2966;52.598;10.928;2023-04-03T06:37:56;0.70;99.90
5881;DHT22;2966;52.598;10.928;2023-04-03T06:40:24;0.90;99.90
5881;DHT22;2966;52.598;10.928;2023-04-03T06:42:51;0.90;99.90
5881;DHT22;2966;52.598;10.928;2023-04-03T06:45:18;1.00;99.90
5881;DHT22;2966;52.598;10.928;2023-04-03T06:47:45;1.10;99.90
5881;DHT22;2966;52.598;10.928;2023-04-03T06:50:12;1.10;99.90
5881;DHT22;2966;52.598;10.928;2023-04-03T06:52:41;1.10;99.90
5881;DHT22;2966;52.598;10.928;2023-04-03T06:55:08;1.30;99.90
5881;DHT22;2966;52.598;10.928;2023-04-03T06:57:35;1.40;99.90
5881;DHT22;2966;52.598;10.928;2023-04-03T07:00:04;1.40;99.90
5881;DHT22;2966;52.598;10.928;2023-04-03T07:02:31;1.50;99.90
5881;DHT22;2966;52.598;10.928;2023-04-03T07:04:58;1.50;99.90
5881;DHT22;2966;52.598;10.928;2023-04-03T07:07:25;1.50;99.90
5881;DHT22;2966;52.598;10.928;2023-04-03T07:09:53;1.60;99.90
5881;DHT22;2966;52.598;10.928;2023-04-03T07:12:20;1.70;99.90
5881;DHT22;2966;52.598;10.928;2023-04-03T07:14:46;1.70;99.90
5881;DHT22;2966;52.598;10.928;2023-04-03T07:17:13;1.90;99.90
5881;DHT22;2966;52.598;10.928;2023-04-03T07:19:40;1.80;99.90
5881;DHT22;2966;52.598;10.928;2023-04-03T07:22:07;2.10;99.90
5881;DHT22;2966;52.598;10.928;2023-04-03T07:24:34;2.10;99.90
5881;DHT22;2966;52.598;10.928;2023-04-03T07:27:02;2.10;99.90
5881;DHT22;2966;52.598;10.928;2023-04-03T07:29:29;2.20;99.90
5881;DHT22;2966;52.598;10.928;2023-04-03T07:31:56;2.40;99.90
5881;DHT22;2966;52.598;10.928;2023-04-03T07:34:23;2.40;99.90
5881;DHT22;2966;52.598;10.928;2023-04-03T07:36:49;2.50;99.90
5881;DHT22;2966;52.598;10.928;2023-04-03T07:39:16;2.70;99.90
5881;DHT22;2966;52.598;10.928;2023-04-03T07:41:43;2.60;99.90
5881;DHT22;2966;52.598;10.928;2023-04-03T07:44:11;2.70;99.90
5881;DHT22;2966;52.598;10.928;2023-04-03T07:46:38;2.80;99.90
5881;DHT22;2966;52.598;10.928;2023-04-03T07:49:05;2.90;99.90
5881;DHT22;2966;52.598;10.928;2023-04-03T07:51:32;3.00;99.90
5881;DHT22;2966;52.598;10.928;2023-04-03T07:54:00;3.00;99.90
5881;DHT22;2966;52.598;10.928;2023-04-03T07:56:26;3.00;99.90
5881;DHT22;2966;52.598;10.928;2023-04-03T07:58:53;3.10;99.90
5881;DHT22;2966;52.598;10.928;2023-04-03T08:01:21;3.20;99.90
5881;DHT22;2966;52.598;10.928;2023-04-03T08:03:48;3.30;99.90
5881;DHT22;2966;52.598;10.928;2023-04-03T08:06:16;3.30;99.90
5881;DHT22;2966;52.598;10.928;2023-04-03T08:08:42;3.50;99.90
5881;DHT22;2966;52.598;10.928;2023-04-03T08:11:10;3.60;99.90
5881;DHT22;2966;52.598;10.928;2023-04-03T08:13:37;3.60;99.90
5881;DHT22;2966;52.598;10.928;2023-04-03T08:16:11;3.80;99.90
5881;DHT22;2966;52.598;10.928;2023-04-03T08:18:39;3.90;99.90
5881;DHT22;2966;52.598;10.928;2023-04-03T08:21:07;4.00;99.90
5881;DHT22;2966;52.598;10.928;2023-04-03T08:23:34;4.00;99.90
5881;DHT22;2966;52.598;10.928;2023-04-03T08:26:06;4.20;99.90
5881;DHT22;2966;52.598;10.928;2023-04-03T08:28:33;4.40;99.90
5881;DHT22;2966;52.598;10.928;2023-04-03T08:31:03;4.50;99.90
5881;DHT22;2966;52.598;10.928;2023-04-03T08:33:32;4.50;99.90
5881;DHT22;2966;52.598;10.928;2023-04-03T08:36:01;4.40;99.90
5881;DHT22;2966;52.598;10.928;2023-04-03T08:38:28;4.30;99.90
5881;DHT22;2966;52.598;10.928;2023-04-03T08:41:10;4.40;99.90
5881;DHT22;2966;52.598;10.928;2023-04-03T08:43:54;4.50;99.90
5881;DHT22;2966;52.598;10.928;2023-04-03T08:46:24;4.50;99.90
5881;DHT22;2966;52.598;10.928;2023-04-03T08:48:53;4.60;99.90
5881;DHT22;2966;52.598;10.928;2023-04-03T08:51:23;4.60;99.90
5881;DHT22;2966;52.598;10.928;2023-04-03T08:53:55;4.50;99.90
5881;DHT22;2966;52.598;10.928;2023-04-03T08:56:24;4.50;99.90
5881;DHT22;2966;52.598;10.928;2023-04-03T08:58:56;4.60;99.90
5881;DHT22;2966;52.598;10.928;2023-04-03T09:01:26;4.60;99.90
5881;DHT22;2966;52.598;10.928;2023-04-03T09:03:54;4.70;99.90
5881;DHT22;2966;52.598;10.928;2023-04-03T09:06:25;4.90;99.90
5881;DHT22;2966;52.598;10.928;2023-04-03T09:09:06;5.00;99.90
5881;DHT22;2966;52.598;10.928;2023-04-03T09:11:46;4.90;99.90
5881;DHT22;2966;52.598;10.928;2023-04-03T09:14:15;4.90;99.90
5881;DHT22;2966;52.598;10.928;2023-04-03T09:16:49;5.00;99.90
5881;DHT22;2966;52.598;10.928;2023-04-03T09:19:21;5.00;99.90
5881;DHT22;2966;52.598;10.928;2023-04-03T09:21:52;5.00;99.90
5881;DHT22;2966;52.598;10.928;2023-04-03T09:24:22;4.90;99.90
5881;DHT22;2966;52.598;10.928;2023-04-03T09:26:53;4.80;99.90
5881;DHT22;2966;52.598;10.928;2023-04-03T09:29:23;4.80;99.90
5881;DHT22;2966;52.598;10.928;2023-04-03T09:31:52;4.70;99.90
5881;DHT22;2966;52.598;10.928;2023-04-03T09:34:22;4.70;99.90
5881;DHT22;2966;52.598;10.928;2023-04-03T09:36:53;4.80;99.90
5881;DHT22;2966;52.598;10.928;2023-04-03T09:39:22;4.70;99.90
5881;DHT22;2966;52.598;10.928;2023-04-03T09:41:58;4.50;99.90
5881;DHT22;2966;52.598;10.928;2023-04-03T09:44:27;4.70;99.90
5881;DHT22;2966;52.598;10.928;2023-04-03T09:46:54;4.70;99.90
5881;DHT22;2966;52.598;10.928;2023-04-03T09:49:21;4.80;99.90
5881;DHT22;2966;52.598;10.928;2023-04-03T09:51:48;4.90;99.90
5881;DHT22;2966;52.598;10.928;2023-04-03T09:54:31;5.10;99.90
5881;DHT22;2966;52.598;10.928;2023-04-03T09:57:01;5.10;99.90
5881;DHT22;2966;52.598;10.928;2023-04-03T09:59:31;5.30;99.90
5881;DHT22;2966;52.598;10.928;2023-04-03T10:01:59;5.50;99.90
5881;DHT22;2966;52.598;10.928;2023-04-03T10:04:38;5.70;99.90
5881;DHT22;2966;52.598;10.928;2023-04-03T10:07:27;5.70;99.90
5881;DHT22;2966;52.598;10.928;2023-04-03T10:09:57;5.50;99.90
5881;DHT22;2966;52.598;10.928;2023-04-03T10:12:24;5.20;99.90
5881;DHT22;2966;52.598;10.928;2023-04-03T10:14:55;5.10;99.90
5881;DHT22;2966;52.598;10.928;2023-04-03T10:17:35;5.00;99.90
5881;DHT22;2966;52.598;10.928;2023-04-03T10:20:09;4.90;99.90
5881;DHT22;2966;52.598;10.928;2023-04-03T10:22:50;5.00;99.90
5881;DHT22;2966;52.598;10.928;2023-04-03T10:25:26;4.90;99.90
5881;DHT22;2966;52.598;10.928;2023-04-03T10:27:59;4.90;99.90
5881;DHT22;2966;52.598;10.928;2023-04-03T10:30:33;4.80;99.90
5881;DHT22;2966;52.598;10.928;2023-04-03T10:36:07;4.60;99.90
5881;DHT22;2966;52.598;10.928;2023-04-03T10:38:46;4.60;99.90
5881;DHT22;2966;52.598;10.928;2023-04-03T10:41:22;4.70;99.90
5881;DHT22;2966;52.598;10.928;2023-04-03T10:44:02;5.00;99.90
5881;DHT22;2966;52.598;10.928;2023-04-03T10:46:35;5.60;99.90
5881;DHT22;2966;52.598;10.928;2023-04-03T10:49:19;5.60;99.90
5881;DHT22;2966;52.598;10.928;2023-04-03T10:51:50;5.60;99.90
5881;DHT22;2966;52.598;10.928;2023-04-03T10:54:24;6.10;99.90
5881;DHT22;2966;52.598;10.928;2023-04-03T10:56:55;6.60;99.90
5881;DHT22;2966;52.598;10.928;2023-04-03T10:59:27;6.70;99.90
5881;DHT22;2966;52.598;10.928;2023-04-03T11:01:58;6.90;99.90
5881;DHT22;2966;52.598;10.928;2023-04-03T11:04:31;6.80;99.90
5881;DHT22;2966;52.598;10.928;2023-04-03T11:07:02;7.00;99.90
5881;DHT22;2966;52.598;10.928;2023-04-03T11:09:32;7.30;99.90
5881;DHT22;2966;52.598;10.928;2023-04-03T11:12:06;7.20;99.90
5881;DHT22;2966;52.598;10.928;2023-04-03T11:14:37;6.60;99.90
5881;DHT22;2966;52.598;10.928;2023-04-03T11:17:11;6.30;99.90
5881;DHT22;2966;52.598;10.928;2023-04-03T11:19:42;6.20;99.90
5881;DHT22;2966;52.598;10.928;2023-04-03T11:22:17;6.20;99.90
5881;DHT22;2966;52.598;10.928;2023-04-03T11:24:54;5.90;99.90
5881;DHT22;2966;52.598;10.928;2023-04-03T11:27:27;5.70;99.90
5881;DHT22;2966;52.598;10.928;2023-04-03T11:29:58;5.50;99.90
5881;DHT22;2966;52.598;10.928;2023-04-03T11:32:45;5.40;99.90
5881;DHT22;2966;52.598;10.928;2023-04-03T11:35:17;5.60;99.90
5881;DHT22;2966;52.598;10.928;2023-04-03T11:37:46;5.50;99.90
5881;DHT22;2966;52.598;10.928;2023-04-03T11:40:21;5.50;99.90
5881;DHT22;2966;52.598;10.928;2023-04-03T11:42:52;5.50;99.90
5881;DHT22;2966;52.598;10.928;2023-04-03T11:45:34;5.40;99.90
5881;DHT22;2966;52.598;10.928;2023-04-03T11:48:03;5.50;99.90
5881;DHT22;2966;52.598;10.928;2023-04-03T11:50:39;5.80;99.90
5881;DHT22;2966;52.598;10.928;2023-04-03T11:53:35;6.00;99.90
5881;DHT22;2966;52.598;10.928;2023-04-03T11:56:27;6.30;99.90
5881;DHT22;2966;52.598;10.928;2023-04-03T11:59:22;6.70;99.90
5881;DHT22;2966;52.598;10.928;2023-04-03T12:01:49;7.10;99.90
5881;DHT22;2966;52.598;10.928;2023-04-03T12:04:18;7.40;99.90
5881;DHT22;2966;52.598;10.928;2023-04-03T12:10:17;7.60;99.90
5881;DHT22;2966;52.598;10.928;2023-04-03T12:12:57;7.50;99.90
5881;DHT22;2966;52.598;10.928;2023-04-03T12:15:56;7.00;99.90
5881;DHT22;2966;52.598;10.928;2023-04-03T12:18:43;6.80;99.90
5881;DHT22;2966;52.598;10.928;2023-04-03T12:21:12;6.50;99.90
5881;DHT22;2966;52.598;10.928;2023-04-03T12:23:58;6.10;99.90
5881;DHT22;2966;52.598;10.928;2023-04-03T12:26:28;5.80;99.90
5881;DHT22;2966;52.598;10.928;2023-04-03T12:28:56;6.10;99.90
5881;DHT22;2966;52.598;10.928;2023-04-03T12:31:31;6.50;99.90
5881;DHT22;2966;52.598;10.928;2023-04-03T12:34:15;6.70;99.90
5881;DHT22;2966;52.598;10.928;2023-04-03T12:36:54;7.10;99.90
5881;DHT22;2966;52.598;10.928;2023-04-03T12:39:37;6.80;99.90
5881;DHT22;2966;52.598;10.928;2023-04-03T12:42:18;6.60;99.90
5881;DHT22;2966;52.598;10.928;2023-04-03T12:44:55;6.40;99.90
5881;DHT22;2966;52.598;10.928;2023-04-03T12:47:29;6.30;99.90
5881;DHT22;2966;52.598;10.928;2023-04-03T12:49:59;6.70;99.90
5881;DHT22;2966;52.598;10.928;2023-04-03T12:52:35;6.80;99.90
5881;DHT22;2966;52.598;10.928;2023-04-03T12:55:08;7.20;99.90
5881;DHT22;2966;52.598;10.928;2023-04-03T12:57:40;7.20;99.90
5881;DHT22;2966;52.598;10.928;2023-04-03T13:00:25;7.30;99.90
5881;DHT22;2966;52.598;10.928;2023-04-03T13:02:54;7.20;99.90
5881;DHT22;2966;52.598;10.928;2023-04-03T13:05:22;7.50;99.90
5881;DHT22;2966;52.598;10.928;2023-04-03T13:07:52;7.80;99.90
5881;DHT22;2966;52.598;10.928;2023-04-03T13:10:19;7.90;99.90
5881;DHT22;2966;52.598;10.928;2023-04-03T13:12:49;7.50;99.90
5881;DHT22;2966;52.598;10.928;2023-04-03T13:15:18;7.40;99.90
5881;DHT22;2966;52.598;10.928;2023-04-03T13:17:46;7.30;99.90
5881;DHT22;2966;52.598;10.928;2023-04-03T13:20:20;7.10;99.90
5881;DHT22;2966;52.598;10.928;2023-04-03T13:22:51;6.90;99.90
5881;DHT22;2966;52.598;10.928;2023-04-03T13:25:20;7.00;99.90
5881;DHT22;2966;52.598;10.928;2023-04-03T13:27:48;7.10;99.90
5881;DHT22;2966;52.598;10.928;2023-04-03T13:30:21;6.80;99.90
5881;DHT22;2966;52.598;10.928;2023-04-03T13:32:50;6.70;99.90
5881;DHT22;2966;52.598;10.928;2023-04-03T13:35:28;7.30;99.90
5881;DHT22;2966;52.598;10.928;2023-04-03T13:37:57;7.40;99.90
5881;DHT22;2966;52.598;10.928;2023-04-03T13:40:24;6.90;99.90
5881;DHT22;2966;52.598;10.928;2023-04-03T13:42:59;6.70;99.90
5881;DHT22;2966;52.598;10.928;2023-04-03T13:45:27;6.50;99.90
5881;DHT22;2966;52.598;10.928;2023-04-03T13:48:09;6.30;99.90
5881;DHT22;2966;52.598;10.928;2023-04-03T13:50:53;6.50;99.90
5881;DHT22;2966;52.598;10.928;2023-04-03T13:53:20;6.80;99.90
5881;DHT22;2966;52.598;10.928;2023-04-03T13:56:00;7.00;99.90
5881;DHT22;2966;52.598;10.928;2023-04-03T13:58:32;7.10;99.90
5881;DHT22;2966;52.598;10.928;2023-04-03T14:01:05;7.00;99.90
5881;DHT22;2966;52.598;10.928;2023-04-03T14:03:39;7.00;99.90
5881;DHT22;2966;52.598;10.928;2023-04-03T14:06:10;7.20;99.90
5881;DHT22;2966;52.598;10.928;2023-04-03T14:08:37;7.40;99.90
5881;DHT22;2966;52.598;10.928;2023-04-03T14:11:03;7.20;99.90
5881;DHT22;2966;52.598;10.928;2023-04-03T14:13:31;7.10;99.40
5881;DHT22;2966;52.598;10.928;2023-04-03T14:15:58;7.20;99.90
5881;DHT22;2966;52.598;10.928;2023-04-03T14:18:25;7.20;99.20
5881;DHT22;2966;52.598;10.928;2023-04-03T14:20:52;7.30;99.90
5881;DHT22;2966;52.598;10.928;2023-04-03T14:23:20;7.50;99.90
5881;DHT22;2966;52.598;10.928;2023-04-03T14:25:48;7.70;99.30
5881;DHT22;2966;52.598;10.928;2023-04-03T14:28:17;7.80;98.70
5881;DHT22;2966;52.598;10.928;2023-04-03T14:30:46;7.80;98.20
5881;DHT22;2966;52.598;10.928;2023-04-03T14:33:14;7.50;98.90
5881;DHT22;2966;52.598;10.928;2023-04-03T14:35:41;7.30;99.60
5881;DHT22;2966;52.598;10.928;2023-04-03T14:38:23;7.00;99.90
5881;DHT22;2966;52.598;10.928;2023-04-03T14:40:51;7.00;99.90
5881;DHT22;2966;52.598;10.928;2023-04-03T14:43:18;7.20;99.90
5881;DHT22;2966;52.598;10.928;2023-04-03T14:45:45;7.20;99.50
5881;DHT22;2966;52.598;10.928;2023-04-03T14:48:17;7.20;99.90
5881;DHT22;2966;52.598;10.928;2023-04-03T14:50:44;7.00;99.70
5881;DHT22;2966;52.598;10.928;2023-04-03T14:53:12;6.70;99.90
5881;DHT22;2966;52.598;10.928;2023-04-03T14:55:43;6.50;99.90
5881;DHT22;2966;52.598;10.928;2023-04-03T14:58:13;6.40;99.90
5881;DHT22;2966;52.598;10.928;2023-04-03T15:00:41;6.70;99.90
5881;DHT22;2966;52.598;10.928;2023-04-03T15:03:13;6.90;99.90
5881;DHT22;2966;52.598;10.928;2023-04-03T15:05:42;7.00;99.80
5881;DHT22;2966;52.598;10.928;2023-04-03T15:08:18;7.10;99.90
5881;DHT22;2966;52.598;10.928;2023-04-03T15:10:47;6.80;99.70
5881;DHT22;2966;52.598;10.928;2023-04-03T15:13:14;6.60;99.80
5881;DHT22;2966;52.598;10.928;2023-04-03T15:15:42;6.40;99.90
5881;DHT22;2966;52.598;10.928;2023-04-03T15:18:14;6.20;99.90
5881;DHT22;2966;52.598;10.928;2023-04-03T15:20:41;6.10;99.90
5881;DHT22;2966;52.598;10.928;2023-04-03T15:23:10;6.30;99.90
5881;DHT22;2966;52.598;10.928;2023-04-03T15:25:37;6.40;99.90
5881;DHT22;2966;52.598;10.928;2023-04-03T15:28:08;6.60;99.90
5881;DHT22;2966;52.598;10.928;2023-04-03T15:30:36;7.00;99.90
5881;DHT22;2966;52.598;10.928;2023-04-03T15:33:05;7.30;99.90
5881;DHT22;2966;52.598;10.928;2023-04-03T15:35:31;7.40;99.70
5881;DHT22;2966;52.598;10.928;2023-04-03T15:37:58;7.40;98.80
5881;DHT22;2966;52.598;10.928;2023-04-03T15:40:25;7.40;99.90
5881;DHT22;2966;52.598;10.928;2023-04-03T15:42:52;7.00;99.70
5881;DHT22;2966;52.598;10.928;2023-04-03T15:45:20;6.70;99.90
5881;DHT22;2966;52.598;10.928;2023-04-03T15:47:47;6.50;99.50
5881;DHT22;2966;52.598;10.928;2023-04-03T15:50:13;6.30;99.90
5881;DHT22;2966;52.598;10.928;2023-04-03T15:52:40;6.10;99.70
5881;DHT22;2966;52.598;10.928;2023-04-03T15:55:08;6.00;99.60
5881;DHT22;2966;52.598;10.928;2023-04-03T15:57:34;5.90;99.90
5881;DHT22;2966;52.598;10.928;2023-04-03T16:00:01;5.90;99.90
5881;DHT22;2966;52.598;10.928;2023-04-03T16:02:30;5.90;99.90
5881;DHT22;2966;52.598;10.928;2023-04-03T16:04:56;6.10;99.90
5881;DHT22;2966;52.598;10.928;2023-04-03T16:07:23;6.20;99.90
5881;DHT22;2966;52.598;10.928;2023-04-03T16:09:50;6.40;99.90
5881;DHT22;2966;52.598;10.928;2023-04-03T16:12:16;6.60;99.90
5881;DHT22;2966;52.598;10.928;2023-04-03T16:14:43;6.50;99.90
5881;DHT22;2966;52.598;10.928;2023-04-03T16:17:10;6.40;99.90
5881;DHT22;2966;52.598;10.928;2023-04-03T16:19:38;6.10;99.90